Carlton, Minnesota
Current Conditions -  °F | °C
As of 5:16 AM on Friday 24 Oct 2014 (Local Time) from KCOQ Reporting Station
Haze Haze  
Wind Chill: 44°   Ceiling: 400
Heat Index: 46°   Visibility: 3mi
Dew Point: 46°   Wind: 6mph
Humidity: 100%   Direction: 180°S
Pressure: 29.89"   Gusts: NA
Location:  46.66°N, 92.42°W
Report Text: KCOQ 241016Z AUTO 18005KT 3SM BR BKN004 08/08 A2989 RMK AO2
Loading
Personal Weather Stations






























Interactive Weather Map
Tropical Storm Tracking
New forecast layout! Learn more

10-Day Weather Forecast

Advertisements
Track Severe Weather on mobile